createdAt,value
2022-09-15T00:00:08.381Z,1005.72
2022-09-15T00:05:08.257Z,1005.74
2022-09-15T00:10:07.951Z,1005.78
2022-09-15T00:15:07.649Z,1005.78
2022-09-15T00:20:08.360Z,1005.79
2022-09-15T00:25:08.077Z,1005.71
2022-09-15T00:30:07.811Z,1005.69
2022-09-15T00:35:08.566Z,1005.7
2022-09-15T00:40:08.317Z,1005.76
2022-09-15T00:45:08.057Z,1005.65
2022-09-15T00:50:07.725Z,1005.7
2022-09-15T00:55:08.438Z,1005.61
2022-09-15T01:00:08.136Z,1005.64
2022-09-15T01:05:07.828Z,1005.65
2022-09-15T01:10:09.548Z,1005.65
2022-09-15T01:15:08.256Z,1005.69
2022-09-15T01:20:08.007Z,1005.62
2022-09-15T01:25:07.735Z,1005.54
2022-09-15T01:30:08.454Z,1005.5
2022-09-15T01:35:08.125Z,1005.64
2022-09-15T01:40:07.918Z,1005.71
2022-09-15T01:45:07.688Z,1005.76
2022-09-15T01:50:08.391Z,1005.74
2022-09-15T01:55:08.095Z,1005.64
2022-09-15T02:00:07.946Z,1005.74
2022-09-15T02:05:07.668Z,1005.75
2022-09-15T02:10:08.410Z,1005.72
2022-09-15T02:15:08.127Z,1005.6
2022-09-15T02:20:07.862Z,1005.63
2022-09-15T02:25:08.771Z,1005.64
2022-09-15T02:30:08.484Z,1005.62
2022-09-15T02:35:08.199Z,1005.71
2022-09-15T02:45:08.522Z,1005.66
2022-09-15T02:50:08.216Z,1005.59
2022-09-15T02:55:07.986Z,1005.67
2022-09-15T03:00:07.865Z,1005.73
2022-09-15T03:05:08.541Z,1005.65
2022-09-15T03:10:08.267Z,1005.65
2022-09-15T03:15:07.974Z,1005.71
2022-09-15T03:20:07.659Z,1005.76
2022-09-15T03:25:08.358Z,1005.79
2022-09-15T03:30:08.074Z,1005.79
2022-09-15T03:35:07.794Z,1005.78
2022-09-15T03:40:08.529Z,1005.92
2022-09-15T03:45:08.321Z,1005.91
2022-09-15T03:50:08.052Z,1005.93
2022-09-15T03:55:07.742Z,1005.9
2022-09-15T04:00:08.510Z,1005.93
2022-09-15T04:05:02.453Z,1005.89
2022-09-15T04:10:02.331Z,1005.93
2022-09-15T04:15:02.247Z,1005.86
2022-09-15T04:20:02.230Z,1005.92
2022-09-15T04:25:02.020Z,1005.81
2022-09-15T04:30:01.859Z,1005.81
2022-09-15T04:35:02.680Z,1005.83
2022-09-15T04:40:02.465Z,1005.83
2022-09-15T04:45:02.246Z,1005.87
2022-09-15T04:50:02.299Z,1005.9
2022-09-15T04:55:02.087Z,1005.97
2022-09-15T05:00:01.825Z,1005.92
2022-09-15T05:05:02.599Z,1006.02
2022-09-15T05:10:02.426Z,1006.1
2022-09-15T05:15:02.316Z,1006.12
2022-09-15T05:20:02.079Z,1006.04
2022-09-15T05:25:01.889Z,1005.96
2022-09-15T05:30:31.952Z,1006.06
2022-09-15T05:35:02.180Z,1006.08
2022-09-15T05:40:06.361Z,1006.12
2022-09-15T05:45:02.079Z,1006.16
2022-09-15T05:50:01.851Z,1006.14
2022-09-15T05:55:02.630Z,1006.1
2022-09-15T06:00:02.456Z,1006.18
2022-09-15T06:05:02.570Z,1006.14
2022-09-15T06:10:02.459Z,1006.16
2022-09-15T06:15:02.228Z,1006.23
2022-09-15T06:20:02.094Z,1006.22
2022-09-15T06:25:01.973Z,1006.26
2022-09-15T06:30:01.922Z,1006.34
2022-09-15T06:35:02.919Z,1006.41
2022-09-15T06:40:02.879Z,1006.41
2022-09-15T06:45:02.869Z,1006.48
2022-09-15T06:50:02.701Z,1006.46
2022-09-15T06:55:02.603Z,1006.54
2022-09-15T07:00:02.546Z,1006.55
2022-09-15T07:05:02.394Z,1006.6
2022-09-15T07:10:02.322Z,1006.62
2022-09-15T07:15:02.818Z,1006.75
2022-09-15T07:20:02.685Z,1006.81
2022-09-15T07:25:02.503Z,1006.79
2022-09-15T07:30:02.278Z,1006.83
2022-09-15T07:35:02.082Z,1006.86
2022-09-15T07:40:01.957Z,1006.95
2022-09-15T07:45:01.833Z,1006.92
2022-09-15T07:50:02.689Z,1006.96
2022-09-15T07:55:02.504Z,1007.0
2022-09-15T08:00:02.359Z,1007.0
2022-09-15T08:05:02.172Z,1007.08
2022-09-15T08:10:02.092Z,1007.19
2022-09-15T08:15:01.947Z,1007.25
2022-09-15T08:20:01.853Z,1007.24
2022-09-15T08:25:02.710Z,1007.29
2022-09-15T08:30:02.586Z,1007.31
2022-09-15T08:35:02.387Z,1007.26
2022-09-15T08:40:02.254Z,1007.37
2022-09-15T08:45:02.126Z,1007.39
2022-09-15T08:50:01.969Z,1007.46
2022-09-15T08:55:01.771Z,1007.55
2022-09-15T09:00:02.565Z,1007.64
2022-09-15T09:05:11.815Z,1007.76
2022-09-15T09:10:02.698Z,1007.72
2022-09-15T09:15:02.643Z,1007.72
2022-09-15T09:20:02.583Z,1007.77
2022-09-15T09:25:11.676Z,1007.92
2022-09-15T09:30:02.189Z,1007.92
2022-09-15T09:35:01.951Z,1007.93
2022-09-15T09:40:01.916Z,1007.96
2022-09-15T09:45:01.700Z,1008.01
2022-09-15T09:50:02.564Z,1007.93
2022-09-15T09:55:02.539Z,1007.79
2022-09-15T10:00:02.303Z,1007.79
2022-09-15T10:05:12.307Z,1007.85
2022-09-15T10:10:02.194Z,1007.84
2022-09-15T10:15:02.036Z,1007.8
2022-09-15T10:20:01.833Z,1007.88
2022-09-15T10:25:02.602Z,1007.93
2022-09-15T10:30:02.426Z,1007.79
2022-09-15T10:35:02.249Z,1007.7
2022-09-15T10:40:02.185Z,1007.72
2022-09-15T10:45:02.005Z,1007.73
2022-09-15T10:50:11.784Z,1007.68
2022-09-15T10:55:02.580Z,1007.6
2022-09-15T11:00:02.436Z,1007.56
2022-09-15T11:05:02.243Z,1007.56
2022-09-15T11:10:02.067Z,1007.63
2022-09-15T11:15:01.904Z,1007.62
2022-09-15T11:20:02.740Z,1007.63
2022-09-15T11:25:02.553Z,1007.58
2022-09-15T11:30:02.315Z,1007.67
2022-09-15T11:35:02.128Z,1007.76
2022-09-15T11:40:02.046Z,1007.71
2022-09-15T11:45:01.872Z,1007.92
2022-09-15T11:50:12.723Z,1007.91
2022-09-15T11:55:02.563Z,1007.92
2022-09-15T12:00:02.498Z,1007.9
2022-09-15T12:05:02.436Z,1007.83
2022-09-15T12:10:02.375Z,1007.7
2022-09-15T12:15:02.270Z,1007.66
2022-09-15T12:20:02.138Z,1007.51
2022-09-15T12:25:02.038Z,1007.48
2022-09-15T12:30:01.772Z,1007.45
2022-09-15T12:35:02.550Z,1007.43
2022-09-15T12:40:02.417Z,1007.3
2022-09-15T12:45:02.277Z,1007.38
2022-09-15T12:50:12.025Z,1007.4
2022-09-15T12:55:01.933Z,1007.46
2022-09-15T13:00:02.830Z,1007.5
2022-09-15T13:05:02.643Z,1007.52
2022-09-15T13:10:02.454Z,1007.59
2022-09-15T13:15:02.284Z,1007.5
2022-09-15T13:20:02.218Z,1007.44
2022-09-15T13:25:02.338Z,1007.53
2022-09-15T13:30:02.287Z,1007.4
2022-09-15T13:35:08.559Z,1007.41
2022-09-15T13:40:02.721Z,1007.46
2022-09-15T13:45:04.458Z,1007.46
2022-09-15T13:50:02.207Z,1007.53
2022-09-15T13:55:01.958Z,1007.6
2022-09-15T14:00:01.791Z,1007.5
2022-09-15T14:05:02.520Z,1007.48
2022-09-15T14:10:02.351Z,1007.32
2022-09-15T14:15:02.179Z,1007.37
2022-09-15T14:20:02.023Z,1007.39
2022-09-15T14:25:01.816Z,1007.36
2022-09-15T14:30:02.700Z,1007.36
2022-09-15T14:35:06.304Z,1007.24
2022-09-15T14:40:03.060Z,1007.41
2022-09-15T14:50:02.857Z,1007.64
2022-09-15T14:55:03.009Z,1007.63
2022-09-15T15:00:01.790Z,1007.76
2022-09-15T15:05:02.714Z,1007.64
2022-09-15T15:10:02.549Z,1007.57
2022-09-15T15:15:02.306Z,1007.56
2022-09-15T15:20:02.159Z,1007.55
2022-09-15T15:25:01.940Z,1007.56
2022-09-15T15:30:02.687Z,1007.59
2022-09-15T15:35:02.508Z,1007.53
2022-09-15T15:40:02.400Z,1007.63
2022-09-15T15:45:12.020Z,1007.59
2022-09-15T15:50:12.895Z,1007.66
2022-09-15T15:55:02.669Z,1007.67
2022-09-15T16:00:02.678Z,1007.77
2022-09-15T16:05:02.517Z,1007.83
2022-09-15T16:10:02.329Z,1007.88
2022-09-15T16:15:02.178Z,1007.81
2022-09-15T16:20:02.004Z,1007.79
2022-09-15T16:25:01.883Z,1007.79
2022-09-15T16:30:02.695Z,1007.81
2022-09-15T16:35:02.695Z,1007.74
2022-09-15T16:40:02.512Z,1007.67
2022-09-15T16:45:02.576Z,1007.69
2022-09-15T16:50:02.395Z,1007.76
2022-09-15T16:55:02.160Z,1007.82
2022-09-15T17:00:01.963Z,1007.94
2022-09-15T17:05:01.818Z,1007.99
2022-09-15T17:10:02.750Z,1008.02
2022-09-15T17:15:02.666Z,1007.96
2022-09-15T17:20:02.697Z,1008.13
2022-09-15T17:25:02.642Z,1008.08
2022-09-15T17:30:02.710Z,1008.1
2022-09-15T17:35:02.600Z,1008.05
2022-09-15T17:40:02.655Z,1008.18
2022-09-15T17:45:02.497Z,1008.22
2022-09-15T17:50:02.278Z,1008.11
2022-09-15T17:55:02.048Z,1008.14
2022-09-15T18:00:01.870Z,1008.22
2022-09-15T18:05:02.716Z,1008.21
2022-09-15T18:10:02.566Z,1008.29
2022-09-15T18:15:02.395Z,1008.38
2022-09-15T18:20:02.174Z,1008.34
2022-09-15T18:25:02.039Z,1008.41
2022-09-15T18:30:01.839Z,1008.45
2022-09-15T18:35:02.657Z,1008.5
2022-09-15T18:40:02.452Z,1008.62
2022-09-15T18:45:02.257Z,1008.7
2022-09-15T18:50:01.960Z,1008.71
2022-09-15T18:55:01.816Z,1008.66
2022-09-15T19:00:02.970Z,1008.64
2022-09-15T19:05:01.729Z,1008.72
2022-09-15T19:10:02.542Z,1008.73
2022-09-15T19:15:02.355Z,1008.83
2022-09-15T19:20:02.211Z,1008.99
2022-09-15T19:25:02.030Z,1008.93
2022-09-15T19:30:01.878Z,1009.06
2022-09-15T19:35:02.705Z,1009.03
2022-09-15T19:40:02.602Z,1009.15
2022-09-15T19:45:02.475Z,1009.13
2022-09-15T19:50:02.303Z,1009.11
2022-09-15T19:55:02.241Z,1009.2
2022-09-15T20:00:02.196Z,1009.13
2022-09-15T20:05:02.194Z,1009.15
2022-09-15T20:10:02.195Z,1009.11
2022-09-15T20:15:02.165Z,1009.19
2022-09-15T20:20:02.177Z,1009.15
2022-09-15T20:25:02.104Z,1009.15
2022-09-15T20:30:02.021Z,1009.12
2022-09-15T20:35:21.624Z,1009.06
2022-09-15T20:40:08.351Z,1009.17
2022-09-15T20:45:08.096Z,1009.12
2022-09-15T20:50:07.816Z,1009.06
2022-09-15T20:55:08.589Z,1009.01
2022-09-15T21:00:08.278Z,1008.85
2022-09-15T21:05:08.016Z,1008.9
2022-09-15T21:10:07.729Z,1009.11
2022-09-15T21:15:08.428Z,1009.21
2022-09-15T21:20:08.142Z,1009.32
2022-09-15T21:25:07.858Z,1009.33
2022-09-15T21:30:08.553Z,1009.36
2022-09-15T21:35:08.264Z,1009.42
2022-09-15T21:40:08.022Z,1009.48
2022-09-15T21:45:07.749Z,1009.45
2022-09-15T21:50:08.686Z,1009.41
2022-09-15T21:55:08.425Z,1009.29
2022-09-15T22:00:08.179Z,1009.43
2022-09-15T22:05:07.928Z,1009.51
2022-09-15T22:10:08.613Z,1009.57
2022-09-15T22:15:08.475Z,1009.47
2022-09-15T22:20:08.166Z,1009.65
2022-09-15T22:25:07.865Z,1009.64
2022-09-15T22:30:08.571Z,1009.6
2022-09-15T22:35:08.267Z,1009.57
2022-09-15T22:40:08.073Z,1009.54
2022-09-15T22:45:07.817Z,1009.54
2022-09-15T22:50:08.510Z,1009.47
2022-09-15T22:55:08.236Z,1009.5
2022-09-15T23:01:00.780Z,1009.44
2022-09-15T23:05:08.598Z,1009.47
2022-09-15T23:10:08.177Z,1009.48
2022-09-15T23:15:07.890Z,1009.47
2022-09-15T23:20:08.577Z,1009.37
2022-09-15T23:25:08.257Z,1009.43
2022-09-15T23:30:07.961Z,1009.36
2022-09-15T23:35:07.694Z,1009.37
2022-09-15T23:40:08.409Z,1009.37
2022-09-15T23:45:08.167Z,1009.32
2022-09-15T23:50:07.868Z,1009.26
2022-09-15T23:55:08.585Z,1009.26
